Harewood, Australia

5:50 PM AWST on May 24, 2017 (GMT +0800)
Rising Star Wines | | Change Station

Elev 50 ft 34.93 °S, 117.34 °E | Updated 31 seconds ago

Partly Cloudy
Partly Cloudy
57.2 °F
Feels Like 57.2 °F
N
0.0
Wind Variable Wind from WSW

Today
High -- | Low -- °F
--% Chance of Precip.
Yesterday
High -- | Low -- °F
Precip. -- in
Pressure 30.09 in
Visibility 6.2 miles
Clouds Mostly Cloudy 3700 ft
Mostly Cloudy 4300 ft
Overcast 5200 ft
Dew Point 54 °F
Humidity 90%
Rainfall 0.02 in
Snow Depth Not available.
7:04 AM 5:10 PM
Waning Crescent, 3% visible
METAR YABA 240900Z AUTO 25006KT 9999 // BKN037 BKN043 OVC052 16/11 Q1019
Pressure 30.09 in
Visibility 6.2 miles
Clouds Mostly Cloudy 3700 ft
Mostly Cloudy 4300 ft
Overcast 5200 ft
Dew Point 54 °F
Humidity 90%
Rainfall 0.02 in
Snow Depth Not available.
7:04 AM 5:10 PM
Waning Crescent, 3% visible
METAR YABA 240900Z AUTO 25006KT 9999 // BKN037 BKN043 OVC052 16/11 Q1019

Get Severe Weather Alerts

Thanks for signing up!

Be on the lookout for a verification email in your inbox.

You'll start receiving the daily forecast at 6 AM.

×

10-Day Weather Forecast

×

Almanac

Astronomy

May. 24, 2017 Rise Set
Actual Time
Civil Twilight
Nautical Twilight
Astronomical Twilight
Moon
Length of Visible Light
Length of Day
Tomorrow will be .
, % of the Moon is Illuminated

Today's Extremes

Country Highs Country Lows

Community

WunderPhotos

Category 6

Welcome to Category 6. This is the collective home for Weather Underground's featured writeups by Dr. Jeff Masters (right), Bob Henson (left), Chris Burt, and other regular contributors.

Nearby

Air Quality

  Air Quality AQ Index Pollutant
Not available.

Snow Depth

Station Depth Elevation

Earthquake Activity

City Distance Mag. Time & Date
Minimum magnitude displayed is 2.5.

Coastal Water Temperatures

Place Temperature

Stations

Nearby Weather Stations

Station Location Temp. Windchill Dew Point Humidity Wind Precip. Elev Updated Type